createdAt,value
2023-03-07T00:00:13.421Z,29.73
2023-03-07T00:02:42.072Z,28.67
2023-03-07T00:05:12.610Z,33.30
2023-03-07T00:07:43.455Z,31.70
2023-03-07T00:10:12.867Z,30.00
2023-03-07T00:12:41.059Z,29.73
2023-03-07T00:15:10.462Z,23.65
2023-03-07T00:17:39.339Z,19.35
2023-03-07T00:20:11.221Z,24.85
2023-03-07T00:22:39.562Z,19.67
2023-03-07T00:25:10.519Z,24.92
2023-03-07T00:27:38.839Z,21.00
2023-03-07T00:30:08.090Z,19.73
2023-03-07T00:32:36.345Z,12.43
2023-03-07T00:35:04.831Z,22.75
2023-03-07T00:37:33.049Z,16.15
2023-03-07T00:40:01.322Z,19.10
2023-03-07T00:42:31.049Z,13.65
2023-03-07T00:44:59.181Z,10.35
2023-03-07T00:47:27.969Z,14.85
2023-03-07T00:49:56.748Z,12.65
2023-03-07T00:52:24.979Z,15.45
2023-03-07T00:54:53.470Z,25.67
2023-03-07T00:57:21.880Z,10.32
2023-03-07T00:59:51.461Z,22.75
2023-03-07T01:02:20.143Z,10.02
2023-03-07T01:04:48.497Z,14.32
2023-03-07T01:07:17.174Z,15.07
2023-03-07T01:09:47.250Z,16.70
2023-03-07T01:12:16.381Z,13.57
2023-03-07T01:14:44.519Z,11.18
2023-03-07T01:17:14.004Z,17.10
2023-03-07T01:19:41.880Z,11.23
2023-03-07T01:22:09.976Z,18.33
2023-03-07T01:24:38.108Z,16.33
2023-03-07T01:27:06.718Z,19.35
2023-03-07T01:29:34.926Z,20.50
2023-03-07T01:32:03.466Z,15.18
2023-03-07T01:34:33.593Z,22.83
2023-03-07T01:37:01.955Z,30.38
2023-03-07T01:39:31.010Z,15.18
2023-03-07T01:42:03.686Z,25.00
2023-03-07T01:44:52.555Z,21.42
2023-03-07T01:47:20.878Z,15.60
2023-03-07T01:49:56.626Z,12.80
2023-03-07T01:52:29.394Z,18.25
2023-03-07T01:55:04.456Z,8.80
2023-03-07T01:57:35.697Z,10.13
2023-03-07T02:00:10.864Z,14.23
2023-03-07T02:02:44.975Z,22.95
2023-03-07T02:05:23.423Z,19.23
2023-03-07T02:07:53.852Z,7.45
2023-03-07T02:10:27.688Z,16.98
2023-03-07T02:12:56.270Z,13.85
2023-03-07T02:15:24.703Z,18.35
2023-03-07T02:17:53.740Z,22.58
2023-03-07T02:20:37.463Z,16.58
2023-03-07T02:23:13.641Z,17.75
2023-03-07T02:25:46.145Z,16.20
2023-03-07T02:28:19.214Z,18.40
2023-03-07T02:30:56.560Z,11.05
2023-03-07T02:33:25.960Z,12.10
2023-03-07T02:36:06.951Z,13.65
2023-03-07T02:38:42.635Z,16.27
2023-03-07T02:41:13.417Z,14.90
2023-03-07T02:43:43.751Z,8.52
2023-03-07T02:46:12.873Z,19.05
2023-03-07T02:48:41.708Z,16.45
2023-03-07T02:51:10.289Z,9.27
2023-03-07T02:53:39.462Z,16.73
2023-03-07T02:56:08.478Z,10.82
2023-03-07T02:58:36.587Z,14.93
2023-03-07T03:01:06.684Z,11.93
2023-03-07T03:03:34.857Z,15.27
2023-03-07T03:06:04.079Z,12.35
2023-03-07T03:08:33.194Z,12.68
2023-03-07T03:11:01.859Z,8.93
2023-03-07T03:13:30.958Z,9.85
2023-03-07T03:15:59.940Z,11.95
2023-03-07T03:18:31.105Z,14.52
2023-03-07T03:21:01.391Z,15.88
2023-03-07T03:23:29.763Z,10.45
2023-03-07T03:26:00.149Z,13.98
2023-03-07T03:28:31.650Z,13.05
2023-03-07T03:31:01.423Z,17.58
2023-03-07T03:33:33.089Z,9.73
2023-03-07T03:36:06.514Z,10.45
2023-03-07T03:38:36.068Z,13.95
2023-03-07T03:41:08.341Z,20.73
2023-03-07T03:43:38.845Z,11.13
2023-03-07T03:46:08.032Z,6.50
2023-03-07T03:48:39.369Z,13.75
2023-03-07T03:51:10.555Z,9.63
2023-03-07T03:53:40.711Z,16.20
2023-03-07T03:56:12.551Z,13.43
2023-03-07T03:58:42.085Z,10.50
2023-03-07T04:01:13.149Z,8.55
2023-03-07T04:03:44.962Z,18.67
2023-03-07T04:06:15.736Z,15.60
2023-03-07T04:08:44.512Z,16.60
2023-03-07T04:11:13.575Z,7.00
2023-03-07T04:13:41.903Z,8.82
2023-03-07T04:16:10.482Z,8.73
2023-03-07T04:18:40.212Z,16.38
2023-03-07T04:21:11.031Z,22.98
2023-03-07T04:23:40.007Z,12.05
2023-03-07T04:26:09.523Z,6.90
2023-03-07T04:28:46.393Z,20.25
2023-03-07T04:31:21.114Z,18.10
2023-03-07T04:33:50.334Z,9.55
2023-03-07T04:36:20.572Z,17.30
2023-03-07T04:38:50.120Z,14.85
2023-03-07T04:41:21.206Z,15.68
2023-03-07T04:46:21.859Z,8.07
2023-03-07T04:48:50.602Z,7.93
2023-03-07T04:51:20.808Z,16.75
2023-03-07T04:53:50.787Z,18.90
2023-03-07T04:56:19.300Z,16.38
2023-03-07T04:58:48.967Z,13.68
2023-03-07T05:01:19.789Z,12.70
2023-03-07T05:03:49.075Z,10.88
2023-03-07T05:06:20.580Z,26.30
2023-03-07T05:08:51.621Z,12.02
2023-03-07T05:11:19.987Z,12.10
2023-03-07T05:13:48.784Z,21.25
2023-03-07T05:16:20.483Z,22.20
2023-03-07T05:18:49.740Z,17.27
2023-03-07T05:21:18.276Z,13.30
2023-03-07T05:23:47.974Z,12.15
2023-03-07T05:26:16.586Z,17.13
2023-03-07T05:28:44.836Z,16.38
2023-03-07T05:31:13.302Z,12.48
2023-03-07T05:33:42.769Z,11.35
2023-03-07T05:36:13.400Z,7.53
2023-03-07T05:41:14.711Z,9.95
2023-03-07T05:43:44.990Z,10.02
2023-03-07T05:46:13.672Z,16.88
2023-03-07T05:48:41.980Z,20.08
2023-03-07T05:51:10.591Z,11.25
2023-03-07T05:53:38.953Z,13.80
2023-03-07T05:56:08.921Z,6.97
2023-03-07T05:58:39.836Z,17.42
2023-03-07T06:01:10.320Z,11.48
2023-03-07T06:03:38.690Z,14.55
2023-03-07T06:06:08.545Z,11.38
2023-03-07T06:08:36.620Z,11.27
2023-03-07T06:11:06.930Z,8.80
2023-03-07T06:13:40.207Z,12.73
2023-03-07T06:16:10.301Z,11.88
2023-03-07T06:18:41.315Z,8.65
2023-03-07T06:21:11.673Z,7.28
2023-03-07T06:23:44.539Z,15.30
2023-03-07T06:26:15.997Z,11.73
2023-03-07T06:28:49.366Z,15.90
2023-03-07T06:31:20.342Z,6.10
2023-03-07T06:33:50.552Z,11.80
2023-03-07T06:36:21.804Z,17.95
2023-03-07T06:38:57.280Z,9.93
2023-03-07T06:43:43.045Z,13.43
2023-03-07T06:46:12.068Z,14.80
2023-03-07T06:48:43.774Z,16.55
2023-03-07T06:51:17.544Z,6.82
2023-03-07T06:53:48.595Z,10.25
2023-03-07T06:56:18.030Z,10.38
2023-03-07T06:58:48.736Z,6.38
2023-03-07T07:01:20.107Z,5.07
2023-03-07T07:03:52.711Z,7.97
2023-03-07T07:06:22.021Z,10.45
2023-03-07T07:08:55.596Z,18.58
2023-03-07T07:11:26.625Z,12.07
2023-03-07T07:13:57.639Z,10.95
2023-03-07T07:16:26.321Z,12.00
2023-03-07T07:18:55.137Z,13.23
2023-03-07T07:21:24.110Z,7.22
2023-03-07T07:23:53.635Z,13.45
2023-03-07T07:26:22.530Z,9.18
2023-03-07T07:28:52.034Z,10.70
2023-03-07T07:31:23.112Z,4.65
2023-03-07T07:33:52.338Z,4.72
2023-03-07T07:36:24.747Z,8.95
2023-03-07T07:38:55.908Z,4.33
2023-03-07T07:41:25.374Z,7.70
2023-03-07T07:43:57.867Z,2.53
2023-03-07T07:46:38.536Z,8.60
2023-03-07T07:49:10.055Z,5.85
2023-03-07T07:51:41.239Z,10.07
2023-03-07T07:54:10.918Z,6.55
2023-03-07T07:56:40.106Z,8.55
2023-03-07T07:59:09.616Z,13.70
2023-03-07T08:01:40.310Z,9.70
2023-03-07T08:04:10.161Z,12.90
2023-03-07T08:06:41.513Z,3.65
2023-03-07T08:09:10.100Z,9.10
2023-03-07T08:11:38.524Z,8.15
2023-03-07T08:14:09.433Z,6.75
2023-03-07T08:16:40.913Z,10.27
2023-03-07T08:19:10.868Z,10.40
2023-03-07T08:21:39.367Z,6.50
2023-03-07T08:24:08.935Z,10.65
2023-03-07T08:26:38.990Z,12.18
2023-03-07T08:29:09.362Z,13.38
2023-03-07T08:31:40.260Z,9.85
2023-03-07T08:34:08.887Z,6.50
2023-03-07T08:36:37.019Z,12.25
2023-03-07T08:39:06.421Z,11.70
2023-03-07T08:41:34.893Z,11.73
2023-03-07T08:44:04.220Z,8.35
2023-03-07T08:46:32.412Z,5.93
2023-03-07T08:49:02.372Z,13.60
2023-03-07T08:51:31.253Z,9.15
2023-03-07T08:54:00.721Z,11.18
2023-03-07T08:56:30.366Z,7.78
2023-03-07T08:58:59.308Z,12.88
2023-03-07T09:01:28.558Z,7.53
2023-03-07T09:03:57.824Z,12.05
2023-03-07T09:06:28.737Z,14.88
2023-03-07T09:08:58.892Z,10.77
2023-03-07T09:11:29.004Z,7.38
2023-03-07T09:13:58.589Z,6.65
2023-03-07T09:16:27.622Z,6.28
2023-03-07T09:18:56.606Z,10.85
2023-03-07T09:21:30.822Z,8.90
2023-03-07T09:23:59.959Z,15.70
2023-03-07T09:26:28.816Z,12.38
2023-03-07T09:29:00.039Z,13.25
2023-03-07T09:31:28.359Z,15.32
2023-03-07T09:33:58.566Z,10.25
2023-03-07T09:36:28.964Z,6.95
2023-03-07T09:38:58.337Z,6.20
2023-03-07T09:41:54.675Z,5.82
2023-03-07T09:44:39.065Z,7.15
2023-03-07T09:48:00.242Z,10.00
2023-03-07T09:50:37.279Z,10.85
2023-03-07T09:53:14.404Z,13.48
2023-03-07T09:55:44.365Z,21.63
2023-03-07T09:58:17.546Z,3.97
2023-03-07T10:00:47.554Z,7.80
2023-03-07T10:03:28.767Z,5.15
2023-03-07T10:06:01.409Z,8.80
2023-03-07T10:08:35.052Z,12.32
2023-03-07T10:11:18.533Z,5.93
2023-03-07T10:14:01.116Z,18.48
2023-03-07T10:16:37.781Z,10.77
2023-03-07T10:19:16.020Z,8.35
2023-03-07T10:21:53.595Z,13.27
2023-03-07T10:24:52.527Z,6.88
2023-03-07T10:27:26.953Z,13.48
2023-03-07T10:29:57.665Z,11.85
2023-03-07T10:32:34.126Z,14.57
2023-03-07T10:35:17.150Z,14.70
2023-03-07T10:37:53.685Z,9.38
2023-03-07T10:40:27.655Z,14.85
2023-03-07T10:42:58.359Z,6.97
2023-03-07T10:45:31.511Z,9.23
2023-03-07T10:50:39.929Z,9.30
2023-03-07T10:53:21.650Z,12.63
2023-03-07T10:55:53.949Z,10.43
2023-03-07T10:58:25.029Z,11.40
2023-03-07T11:01:20.331Z,10.50
2023-03-07T11:03:55.428Z,6.88
2023-03-07T11:06:34.919Z,11.63
2023-03-07T11:09:17.287Z,14.68
2023-03-07T11:11:56.418Z,22.42
2023-03-07T11:14:26.263Z,12.10
2023-03-07T11:16:57.591Z,5.90
2023-03-07T11:19:42.272Z,10.23
2023-03-07T11:22:25.007Z,13.43
2023-03-07T11:25:01.571Z,12.85
2023-03-07T11:27:40.650Z,14.02
2023-03-07T11:30:19.773Z,10.15
2023-03-07T11:33:09.396Z,12.43
2023-03-07T11:36:00.325Z,10.93
2023-03-07T11:38:37.328Z,7.00
2023-03-07T11:41:12.184Z,12.88
2023-03-07T11:44:00.181Z,12.07
2023-03-07T11:46:40.192Z,9.88
2023-03-07T11:49:27.404Z,12.80
2023-03-07T11:52:10.428Z,4.78
2023-03-07T11:54:50.686Z,8.50
2023-03-07T11:57:31.734Z,7.32
2023-03-07T12:00:21.341Z,20.20
2023-03-07T12:03:20.006Z,7.63
2023-03-07T12:06:07.898Z,16.95
2023-03-07T12:08:52.465Z,8.75
2023-03-07T12:11:47.417Z,7.82
2023-03-07T12:14:24.555Z,4.40
2023-03-07T12:17:07.939Z,9.57
2023-03-07T12:19:55.377Z,16.65
2023-03-07T12:22:29.500Z,5.10
2023-03-07T12:25:09.854Z,12.35
2023-03-07T12:27:43.453Z,4.38
2023-03-07T12:30:20.100Z,14.35
2023-03-07T12:32:51.887Z,8.07
2023-03-07T12:35:28.876Z,8.10
2023-03-07T12:38:06.845Z,3.65
2023-03-07T12:40:42.017Z,1.63
2023-03-07T12:43:21.041Z,6.45
2023-03-07T12:45:57.178Z,6.28
2023-03-07T12:48:39.711Z,5.00
2023-03-07T12:51:18.221Z,7.72
2023-03-07T12:53:51.189Z,7.53
2023-03-07T12:56:22.692Z,9.23
2023-03-07T12:58:56.154Z,7.05
2023-03-07T13:01:29.061Z,2.53
2023-03-07T13:04:08.542Z,3.25
2023-03-07T13:06:42.056Z,6.60
2023-03-07T13:09:19.592Z,5.20
2023-03-07T13:12:25.544Z,6.30
2023-03-07T13:14:55.150Z,7.20
2023-03-07T13:18:01.901Z,16.85
2023-03-07T13:20:44.748Z,11.65
2023-03-07T13:23:28.569Z,9.05
2023-03-07T13:26:13.472Z,7.15
2023-03-07T13:28:52.940Z,10.18
2023-03-07T13:31:39.256Z,8.02
2023-03-07T13:34:46.869Z,11.73
2023-03-07T13:37:57.205Z,5.90
2023-03-07T13:40:58.611Z,5.15
2023-03-07T13:43:58.845Z,11.73
2023-03-07T13:47:01.678Z,4.28
2023-03-07T13:49:48.759Z,5.20
2023-03-07T13:52:40.104Z,4.75
2023-03-07T13:55:46.456Z,7.80
2023-03-07T13:58:28.464Z,5.40
2023-03-07T14:01:01.121Z,5.70
2023-03-07T14:03:34.829Z,10.75
2023-03-07T14:06:12.340Z,8.15
2023-03-07T14:08:42.147Z,4.90
2023-03-07T14:11:23.253Z,10.95
2023-03-07T14:14:21.538Z,3.75
2023-03-07T14:17:05.324Z,5.20
2023-03-07T14:19:52.714Z,12.82
2023-03-07T14:22:35.253Z,3.38
2023-03-07T14:25:39.213Z,8.02
2023-03-07T14:28:22.344Z,9.48
2023-03-07T14:30:58.665Z,12.90
2023-03-07T14:33:33.731Z,17.10
2023-03-07T14:36:03.806Z,5.57
2023-03-07T14:38:34.337Z,13.77
2023-03-07T14:41:29.465Z,2.65
2023-03-07T14:44:09.115Z,2.17
2023-03-07T14:46:59.527Z,5.93
2023-03-07T14:49:36.914Z,3.72
2023-03-07T14:52:06.778Z,5.68
2023-03-07T14:54:38.530Z,3.58
2023-03-07T14:57:22.993Z,4.93
2023-03-07T15:00:13.544Z,7.50
2023-03-07T15:02:48.808Z,5.40
2023-03-07T15:05:20.733Z,10.57
2023-03-07T15:07:49.466Z,5.88
2023-03-07T15:10:25.224Z,3.63
2023-03-07T15:12:57.905Z,2.17
2023-03-07T15:15:34.043Z,2.23
2023-03-07T15:18:08.031Z,8.85
2023-03-07T15:20:37.742Z,4.80
2023-03-07T15:23:09.551Z,7.85
2023-03-07T15:25:40.013Z,0.77
2023-03-07T15:28:19.804Z,1.35
2023-03-07T15:30:55.402Z,2.42
2023-03-07T15:33:25.934Z,2.15
2023-03-07T15:36:19.955Z,1.30
2023-03-07T15:38:50.653Z,2.83
2023-03-07T15:41:34.970Z,3.75
2023-03-07T15:44:23.304Z,3.22
2023-03-07T15:46:56.325Z,2.95
2023-03-07T15:49:27.392Z,1.48
2023-03-07T15:52:02.561Z,1.95
2023-03-07T15:54:36.321Z,2.33
2023-03-07T15:57:10.494Z,0.45
2023-03-07T15:59:45.637Z,3.03
2023-03-07T16:02:37.829Z,2.42
2023-03-07T16:05:10.079Z,0.98
2023-03-07T16:07:39.336Z,1.95
2023-03-07T16:10:10.240Z,1.30
2023-03-07T16:12:46.399Z,4.47
2023-03-07T16:15:17.667Z,1.90
2023-03-07T16:17:53.398Z,3.33
2023-03-07T16:20:24.971Z,0.90
2023-03-07T16:22:55.487Z,3.97
2023-03-07T16:25:28.469Z,4.45
2023-03-07T16:28:00.370Z,2.72
2023-03-07T16:30:34.015Z,4.78
2023-03-07T16:33:05.264Z,1.90
2023-03-07T16:35:35.813Z,4.88
2023-03-07T16:38:07.266Z,6.47
2023-03-07T16:40:38.449Z,1.63
2023-03-07T16:43:32.580Z,1.87
2023-03-07T16:46:05.623Z,2.42
2023-03-07T16:48:37.715Z,3.22
2023-03-07T16:51:08.963Z,2.70
2023-03-07T16:53:38.188Z,1.45
2023-03-07T16:56:11.570Z,2.05
2023-03-07T16:58:43.504Z,1.85
2023-03-07T17:01:17.816Z,4.15
2023-03-07T17:03:51.334Z,3.15
2023-03-07T17:06:25.427Z,2.63
2023-03-07T17:08:56.747Z,3.00
2023-03-07T17:11:29.633Z,3.55
2023-03-07T17:14:00.905Z,1.20
2023-03-07T17:16:33.215Z,1.83
2023-03-07T17:19:04.777Z,2.80
2023-03-07T17:21:34.434Z,5.25
2023-03-07T17:24:03.017Z,3.38
2023-03-07T17:26:34.358Z,1.85
2023-03-07T17:29:08.913Z,3.45
2023-03-07T17:31:39.645Z,2.03
2023-03-07T17:34:19.477Z,4.50
2023-03-07T17:36:48.541Z,6.90
2023-03-07T17:39:17.929Z,6.80
2023-03-07T17:41:47.171Z,11.55
2023-03-07T17:44:17.909Z,4.00
2023-03-07T17:46:48.004Z,3.38
2023-03-07T17:49:19.512Z,2.35
2023-03-07T17:51:49.491Z,3.00
2023-03-07T17:54:25.746Z,3.42
2023-03-07T17:57:04.728Z,2.10
2023-03-07T17:59:35.301Z,5.03
2023-03-07T18:02:05.896Z,0.43
2023-03-07T18:04:36.577Z,2.38
2023-03-07T18:07:06.611Z,3.42
2023-03-07T18:09:35.359Z,3.42
2023-03-07T18:12:05.489Z,4.13
2023-03-07T18:14:35.942Z,3.08
2023-03-07T18:17:06.857Z,2.10
2023-03-07T18:19:39.386Z,1.05
2023-03-07T18:22:08.946Z,4.13
2023-03-07T18:24:37.367Z,3.45
2023-03-07T18:27:09.040Z,2.15
2023-03-07T18:29:39.493Z,6.13
2023-03-07T18:32:09.470Z,1.33
2023-03-07T18:34:41.743Z,1.08
2023-03-07T18:37:11.574Z,3.28
2023-03-07T18:39:42.028Z,2.33
2023-03-07T18:42:12.439Z,4.40
2023-03-07T18:44:41.591Z,4.38
2023-03-07T18:47:10.966Z,2.75
2023-03-07T18:49:41.654Z,1.55
2023-03-07T18:52:10.581Z,6.25
2023-03-07T18:54:40.181Z,4.45
2023-03-07T18:57:09.911Z,2.65
2023-03-07T18:59:38.064Z,3.88
2023-03-07T19:02:07.560Z,6.50
2023-03-07T19:04:37.268Z,4.70
2023-03-07T19:07:08.385Z,3.38
2023-03-07T19:09:38.271Z,5.60
2023-03-07T19:12:08.409Z,4.63
2023-03-07T19:14:38.012Z,0.80
2023-03-07T19:17:07.711Z,3.55
2023-03-07T19:19:36.985Z,2.55
2023-03-07T19:22:07.988Z,6.90
2023-03-07T19:24:37.480Z,6.13
2023-03-07T19:27:07.054Z,7.18
2023-03-07T19:29:36.921Z,4.35
2023-03-07T19:32:08.072Z,9.38
2023-03-07T19:34:38.820Z,2.75
2023-03-07T19:37:10.401Z,3.63
2023-03-07T19:39:40.142Z,3.70
2023-03-07T19:42:08.893Z,5.95
2023-03-07T19:44:38.298Z,3.65
2023-03-07T19:47:07.159Z,7.57
2023-03-07T19:49:36.398Z,4.07
2023-03-07T19:52:06.049Z,6.72
2023-03-07T19:54:36.151Z,6.72
2023-03-07T19:57:09.341Z,5.80
2023-03-07T19:59:38.625Z,6.57
2023-03-07T20:02:09.851Z,5.38
2023-03-07T20:04:38.642Z,5.43
2023-03-07T20:07:09.702Z,6.43
2023-03-07T20:09:40.086Z,6.80
2023-03-07T20:12:11.254Z,4.10
2023-03-07T20:14:44.729Z,3.60
2023-03-07T20:17:14.767Z,3.17
2023-03-07T20:19:44.667Z,5.85
2023-03-07T20:22:13.504Z,5.40
2023-03-07T20:24:44.730Z,11.50
2023-03-07T20:27:20.350Z,6.07
2023-03-07T20:29:50.478Z,8.77
2023-03-07T20:32:20.792Z,5.95
2023-03-07T20:34:54.123Z,6.55
2023-03-07T20:37:24.616Z,5.60
2023-03-07T20:39:57.556Z,10.65
2023-03-07T20:42:27.212Z,9.77
2023-03-07T20:44:56.789Z,6.68
2023-03-07T20:47:25.394Z,3.78
2023-03-07T20:49:55.595Z,4.05
2023-03-07T20:52:25.608Z,5.57
2023-03-07T20:54:56.140Z,9.45
2023-03-07T20:57:25.390Z,1.92
2023-03-07T20:59:54.469Z,3.15
2023-03-07T21:02:23.547Z,4.50
2023-03-07T21:04:52.222Z,3.83
2023-03-07T21:07:21.428Z,2.20
2023-03-07T21:09:51.072Z,4.03
2023-03-07T21:12:21.535Z,2.00
2023-03-07T21:14:50.242Z,3.05
2023-03-07T21:17:18.839Z,5.18
2023-03-07T21:19:47.253Z,6.00
2023-03-07T21:22:16.795Z,6.60
2023-03-07T21:24:45.449Z,6.95
2023-03-07T21:27:14.197Z,2.88
2023-03-07T21:29:43.989Z,3.15
2023-03-07T21:32:13.030Z,2.50
2023-03-07T21:34:41.628Z,4.90
2023-03-07T21:37:11.486Z,6.57
2023-03-07T21:39:40.420Z,3.10
2023-03-07T21:42:10.131Z,2.97
2023-03-07T21:44:38.748Z,3.55
2023-03-07T21:47:10.094Z,4.13
2023-03-07T21:49:38.344Z,8.18
2023-03-07T21:52:09.151Z,5.40
2023-03-07T21:54:38.794Z,5.78
2023-03-07T21:57:08.752Z,3.65
2023-03-07T21:59:38.134Z,3.03
2023-03-07T22:02:09.396Z,5.88
2023-03-07T22:04:38.263Z,3.28
2023-03-07T22:07:08.470Z,5.47
2023-03-07T22:09:38.197Z,5.97
2023-03-07T22:12:09.506Z,5.13
2023-03-07T22:14:39.388Z,5.53
2023-03-07T22:17:12.213Z,4.40
2023-03-07T22:19:41.445Z,4.75
2023-03-07T22:22:11.654Z,3.17
2023-03-07T22:24:43.680Z,1.30
2023-03-07T22:27:12.039Z,5.93
2023-03-07T22:29:40.502Z,3.80
2023-03-07T22:32:10.588Z,1.90
2023-03-07T22:34:40.359Z,9.35
2023-03-07T22:37:10.357Z,3.75
2023-03-07T22:39:40.027Z,5.43
2023-03-07T22:42:09.341Z,8.55
2023-03-07T22:44:37.612Z,2.63
2023-03-07T22:47:06.704Z,1.50
2023-03-07T22:49:36.480Z,5.97
2023-03-07T22:52:05.648Z,2.97
2023-03-07T22:54:39.203Z,2.88
2023-03-07T22:57:07.553Z,2.08
2023-03-07T22:59:35.854Z,3.60
2023-03-07T23:02:05.249Z,2.38
2023-03-07T23:04:33.833Z,2.22
2023-03-07T23:07:04.748Z,1.88
2023-03-07T23:09:34.037Z,3.08
2023-03-07T23:12:02.379Z,5.18
2023-03-07T23:14:30.871Z,2.65
2023-03-07T23:16:58.932Z,4.00
2023-03-07T23:19:27.533Z,1.95
2023-03-07T23:21:56.629Z,4.75
2023-03-07T23:24:26.093Z,2.63
2023-03-07T23:26:54.569Z,3.15
2023-03-07T23:29:23.157Z,3.38
2023-03-07T23:31:52.446Z,1.80
2023-03-07T23:34:22.549Z,3.42
2023-03-07T23:36:51.564Z,6.45
2023-03-07T23:39:20.519Z,5.30
2023-03-07T23:41:50.105Z,4.03
2023-03-07T23:44:18.167Z,2.78
2023-03-07T23:46:47.062Z,13.55
2023-03-07T23:49:15.420Z,3.60
2023-03-07T23:51:44.675Z,4.35
2023-03-07T23:54:12.798Z,5.28
2023-03-07T23:56:41.015Z,4.68
2023-03-07T23:59:10.703Z,6.72
